sensor_id;sensor_type;location;lat;lon;timestamp;temperature;humidity
33699;DHT22;20032;52.436;13.312;2023-05-23T00:01:18;19.50;87.20
33699;DHT22;20032;52.436;13.312;2023-05-23T00:03:43;19.50;86.80
33699;DHT22;20032;52.436;13.312;2023-05-23T00:06:09;19.50;86.20
33699;DHT22;20032;52.436;13.312;2023-05-23T00:08:34;19.50;86.50
33699;DHT22;20032;52.436;13.312;2023-05-23T00:11:00;19.50;85.70
33699;DHT22;20032;52.436;13.312;2023-05-23T00:13:25;19.40;86.80
33699;DHT22;20032;52.436;13.312;2023-05-23T00:15:51;19.30;87.00
33699;DHT22;20032;52.436;13.312;2023-05-23T00:18:16;19.40;86.50
33699;DHT22;20032;52.436;13.312;2023-05-23T00:20:43;19.30;86.60
33699;DHT22;20032;52.436;13.312;2023-05-23T00:23:10;19.30;86.80
33699;DHT22;20032;52.436;13.312;2023-05-23T00:25:38;19.30;87.70
33699;DHT22;20032;52.436;13.312;2023-05-23T00:28:05;19.10;87.80
33699;DHT22;20032;52.436;13.312;2023-05-23T00:30:32;19.20;87.90
33699;DHT22;20032;52.436;13.312;2023-05-23T00:32:58;19.10;88.50
33699;DHT22;20032;52.436;13.312;2023-05-23T00:35:25;19.10;88.00
33699;DHT22;20032;52.436;13.312;2023-05-23T00:37:51;19.00;88.40
33699;DHT22;20032;52.436;13.312;2023-05-23T00:40:17;19.00;88.30
33699;DHT22;20032;52.436;13.312;2023-05-23T00:42:43;18.90;89.20
33699;DHT22;20032;52.436;13.312;2023-05-23T00:45:09;18.80;89.40
33699;DHT22;20032;52.436;13.312;2023-05-23T00:47:37;18.80;89.60
33699;DHT22;20032;52.436;13.312;2023-05-23T00:50:03;18.80;89.60
33699;DHT22;20032;52.436;13.312;2023-05-23T00:52:29;18.80;89.40
33699;DHT22;20032;52.436;13.312;2023-05-23T00:54:55;18.70;90.20
33699;DHT22;20032;52.436;13.312;2023-05-23T00:57:20;18.80;90.20
33699;DHT22;20032;52.436;13.312;2023-05-23T00:59:47;18.70;90.40
33699;DHT22;20032;52.436;13.312;2023-05-23T01:02:12;18.60;90.40
33699;DHT22;20032;52.436;13.312;2023-05-23T01:04:38;18.60;90.40
33699;DHT22;20032;52.436;13.312;2023-05-23T01:07:04;18.50;90.60
33699;DHT22;20032;52.436;13.312;2023-05-23T01:09:30;18.40;90.90
33699;DHT22;20032;52.436;13.312;2023-05-23T01:12:20;18.30;91.10
33699;DHT22;20032;52.436;13.312;2023-05-23T01:15:03;18.30;91.20
33699;DHT22;20032;52.436;13.312;2023-05-23T01:20:49;18.30;91.20
33699;DHT22;20032;52.436;13.312;2023-05-23T01:23:09;18.40;90.90
33699;DHT22;20032;52.436;13.312;2023-05-23T01:26:06;18.40;90.90
33699;DHT22;20032;52.436;13.312;2023-05-23T01:28:36;18.40;90.90
33699;DHT22;20032;52.436;13.312;2023-05-23T01:31:03;18.40;90.70
33699;DHT22;20032;52.436;13.312;2023-05-23T01:33:31;18.40;90.60
33699;DHT22;20032;52.436;13.312;2023-05-23T01:35:57;18.40;90.60
33699;DHT22;20032;52.436;13.312;2023-05-23T01:38:24;18.30;91.10
33699;DHT22;20032;52.436;13.312;2023-05-23T01:40:50;18.30;91.40
33699;DHT22;20032;52.436;13.312;2023-05-23T01:43:15;18.20;91.10
33699;DHT22;20032;52.436;13.312;2023-05-23T01:45:41;18.20;91.00
33699;DHT22;20032;52.436;13.312;2023-05-23T01:48:08;18.30;90.80
33699;DHT22;20032;52.436;13.312;2023-05-23T01:50:36;18.30;91.00
33699;DHT22;20032;52.436;13.312;2023-05-23T01:53:02;18.30;91.00
33699;DHT22;20032;52.436;13.312;2023-05-23T01:55:28;18.30;91.10
33699;DHT22;20032;52.436;13.312;2023-05-23T01:57:56;18.30;91.60
33699;DHT22;20032;52.436;13.312;2023-05-23T02:00:22;18.40;91.60
33699;DHT22;20032;52.436;13.312;2023-05-23T02:02:48;18.30;91.90
33699;DHT22;20032;52.436;13.312;2023-05-23T02:05:14;18.30;91.80
33699;DHT22;20032;52.436;13.312;2023-05-23T02:07:39;18.30;91.80
33699;DHT22;20032;52.436;13.312;2023-05-23T02:10:07;18.20;91.80
33699;DHT22;20032;52.436;13.312;2023-05-23T02:12:33;18.00;92.40
33699;DHT22;20032;52.436;13.312;2023-05-23T02:14:58;18.00;92.70
33699;DHT22;20032;52.436;13.312;2023-05-23T02:17:24;18.00;92.70
33699;DHT22;20032;52.436;13.312;2023-05-23T02:19:50;17.80;93.10
33699;DHT22;20032;52.436;13.312;2023-05-23T02:22:15;17.80;93.20
33699;DHT22;20032;52.436;13.312;2023-05-23T02:24:41;17.80;93.20
33699;DHT22;20032;52.436;13.312;2023-05-23T02:27:06;18.00;93.00
33699;DHT22;20032;52.436;13.312;2023-05-23T02:29:32;17.90;93.30
33699;DHT22;20032;52.436;13.312;2023-05-23T02:31:57;18.00;93.20
33699;DHT22;20032;52.436;13.312;2023-05-23T02:34:23;18.10;93.30
33699;DHT22;20032;52.436;13.312;2023-05-23T02:36:48;18.00;93.40
33699;DHT22;20032;52.436;13.312;2023-05-23T02:39:14;17.80;94.00
33699;DHT22;20032;52.436;13.312;2023-05-23T02:41:39;17.80;93.40
33699;DHT22;20032;52.436;13.312;2023-05-23T02:44:05;17.80;93.40
33699;DHT22;20032;52.436;13.312;2023-05-23T02:46:31;17.90;93.50
33699;DHT22;20032;52.436;13.312;2023-05-23T02:48:57;17.90;93.70
33699;DHT22;20032;52.436;13.312;2023-05-23T02:51:22;18.00;93.50
33699;DHT22;20032;52.436;13.312;2023-05-23T02:53:48;18.00;93.90
33699;DHT22;20032;52.436;13.312;2023-05-23T02:56:13;17.80;94.10
33699;DHT22;20032;52.436;13.312;2023-05-23T02:58:40;17.80;94.60
33699;DHT22;20032;52.436;13.312;2023-05-23T03:01:05;17.90;93.80
33699;DHT22;20032;52.436;13.312;2023-05-23T03:03:32;17.90;93.40
33699;DHT22;20032;52.436;13.312;2023-05-23T03:05:58;18.00;93.80
33699;DHT22;20032;52.436;13.312;2023-05-23T03:08:23;17.90;94.20
33699;DHT22;20032;52.436;13.312;2023-05-23T03:10:49;17.80;94.50
33699;DHT22;20032;52.436;13.312;2023-05-23T03:13:15;17.80;94.20
33699;DHT22;20032;52.436;13.312;2023-05-23T03:15:41;17.80;94.80
33699;DHT22;20032;52.436;13.312;2023-05-23T03:18:06;17.90;95.30
33699;DHT22;20032;52.436;13.312;2023-05-23T03:20:32;17.90;95.10
33699;DHT22;20032;52.436;13.312;2023-05-23T03:22:57;17.70;95.30
33699;DHT22;20032;52.436;13.312;2023-05-23T03:25:23;17.70;95.40
33699;DHT22;20032;52.436;13.312;2023-05-23T03:27:48;17.80;95.70
33699;DHT22;20032;52.436;13.312;2023-05-23T03:30:14;17.80;96.30
33699;DHT22;20032;52.436;13.312;2023-05-23T03:32:40;17.90;94.60
33699;DHT22;20032;52.436;13.312;2023-05-23T03:35:05;17.90;94.20
33699;DHT22;20032;52.436;13.312;2023-05-23T03:37:31;17.90;94.30
33699;DHT22;20032;52.436;13.312;2023-05-23T03:39:56;17.90;94.00
33699;DHT22;20032;52.436;13.312;2023-05-23T03:42:22;17.80;94.20
33699;DHT22;20032;52.436;13.312;2023-05-23T03:44:47;17.80;94.20
33699;DHT22;20032;52.436;13.312;2023-05-23T03:47:13;17.80;94.60
33699;DHT22;20032;52.436;13.312;2023-05-23T03:49:38;17.80;94.30
33699;DHT22;20032;52.436;13.312;2023-05-23T03:52:04;17.80;94.60
33699;DHT22;20032;52.436;13.312;2023-05-23T03:54:29;17.80;94.40
33699;DHT22;20032;52.436;13.312;2023-05-23T03:56:55;17.80;94.60
33699;DHT22;20032;52.436;13.312;2023-05-23T03:59:21;17.80;94.30
33699;DHT22;20032;52.436;13.312;2023-05-23T04:01:46;17.80;94.60
33699;DHT22;20032;52.436;13.312;2023-05-23T04:04:12;17.80;94.60
33699;DHT22;20032;52.436;13.312;2023-05-23T04:06:37;17.90;95.00
33699;DHT22;20032;52.436;13.312;2023-05-23T04:09:03;18.00;94.90
33699;DHT22;20032;52.436;13.312;2023-05-23T04:11:30;17.90;94.30
33699;DHT22;20032;52.436;13.312;2023-05-23T04:13:55;17.80;94.60
33699;DHT22;20032;52.436;13.312;2023-05-23T04:16:21;17.60;95.00
33699;DHT22;20032;52.436;13.312;2023-05-23T04:18:48;17.60;95.30
33699;DHT22;20032;52.436;13.312;2023-05-23T04:21:14;17.60;95.70
33699;DHT22;20032;52.436;13.312;2023-05-23T04:23:39;17.60;95.70
33699;DHT22;20032;52.436;13.312;2023-05-23T04:26:05;17.70;96.00
33699;DHT22;20032;52.436;13.312;2023-05-23T04:28:30;17.70;96.10
33699;DHT22;20032;52.436;13.312;2023-05-23T04:30:56;17.70;96.60
33699;DHT22;20032;52.436;13.312;2023-05-23T04:33:23;17.70;97.10
33699;DHT22;20032;52.436;13.312;2023-05-23T04:35:49;17.70;99.90
33699;DHT22;20032;52.436;13.312;2023-05-23T04:38:15;17.60;99.60
33699;DHT22;20032;52.436;13.312;2023-05-23T04:40:41;17.60;99.30
33699;DHT22;20032;52.436;13.312;2023-05-23T04:43:07;17.50;98.60
33699;DHT22;20032;52.436;13.312;2023-05-23T04:45:34;17.50;99.50
33699;DHT22;20032;52.436;13.312;2023-05-23T04:48:01;17.60;99.90
33699;DHT22;20032;52.436;13.312;2023-05-23T04:50:27;17.50;99.90
33699;DHT22;20032;52.436;13.312;2023-05-23T04:52:52;17.40;99.90
33699;DHT22;20032;52.436;13.312;2023-05-23T04:55:18;17.50;99.90
33699;DHT22;20032;52.436;13.312;2023-05-23T04:57:44;17.50;99.90
33699;DHT22;20032;52.436;13.312;2023-05-23T05:00:10;17.50;99.90
33699;DHT22;20032;52.436;13.312;2023-05-23T05:02:37;17.60;99.90
33699;DHT22;20032;52.436;13.312;2023-05-23T05:05:03;17.50;99.90
33699;DHT22;20032;52.436;13.312;2023-05-23T05:07:29;17.50;99.90
33699;DHT22;20032;52.436;13.312;2023-05-23T05:09:56;17.50;99.90
33699;DHT22;20032;52.436;13.312;2023-05-23T05:12:21;17.50;99.90
33699;DHT22;20032;52.436;13.312;2023-05-23T05:14:47;17.50;99.90
33699;DHT22;20032;52.436;13.312;2023-05-23T05:17:12;17.40;99.90
33699;DHT22;20032;52.436;13.312;2023-05-23T05:19:38;17.40;99.90
33699;DHT22;20032;52.436;13.312;2023-05-23T05:22:03;17.40;99.90
33699;DHT22;20032;52.436;13.312;2023-05-23T05:24:29;17.30;99.90
33699;DHT22;20032;52.436;13.312;2023-05-23T05:26:57;17.20;99.90
33699;DHT22;20032;52.436;13.312;2023-05-23T05:29:22;17.20;99.90
33699;DHT22;20032;52.436;13.312;2023-05-23T05:31:48;17.30;99.90
33699;DHT22;20032;52.436;13.312;2023-05-23T05:34:13;17.40;99.90
33699;DHT22;20032;52.436;13.312;2023-05-23T05:36:39;17.40;99.90
33699;DHT22;20032;52.436;13.312;2023-05-23T05:39:11;17.40;99.90
33699;DHT22;20032;52.436;13.312;2023-05-23T05:41:38;17.40;99.90
33699;DHT22;20032;52.436;13.312;2023-05-23T05:44:05;17.40;99.90
33699;DHT22;20032;52.436;13.312;2023-05-23T05:46:31;17.40;99.90
33699;DHT22;20032;52.436;13.312;2023-05-23T05:48:58;17.40;99.90
33699;DHT22;20032;52.436;13.312;2023-05-23T05:51:24;17.20;99.90
33699;DHT22;20032;52.436;13.312;2023-05-23T05:53:49;17.30;99.90
33699;DHT22;20032;52.436;13.312;2023-05-23T05:56:15;17.30;99.90
33699;DHT22;20032;52.436;13.312;2023-05-23T05:58:40;17.40;99.90
33699;DHT22;20032;52.436;13.312;2023-05-23T06:01:06;17.60;99.90
33699;DHT22;20032;52.436;13.312;2023-05-23T06:03:32;17.50;99.90
33699;DHT22;20032;52.436;13.312;2023-05-23T06:05:58;17.40;99.90
33699;DHT22;20032;52.436;13.312;2023-05-23T06:08:24;17.30;99.90
33699;DHT22;20032;52.436;13.312;2023-05-23T06:10:49;17.30;99.90
33699;DHT22;20032;52.436;13.312;2023-05-23T06:13:15;17.40;99.90
33699;DHT22;20032;52.436;13.312;2023-05-23T06:15:41;17.50;99.90
33699;DHT22;20032;52.436;13.312;2023-05-23T06:18:07;17.60;99.90
33699;DHT22;20032;52.436;13.312;2023-05-23T06:20:32;17.60;99.90
33699;DHT22;20032;52.436;13.312;2023-05-23T06:22:58;17.70;99.90
33699;DHT22;20032;52.436;13.312;2023-05-23T06:25:24;17.70;99.90
33699;DHT22;20032;52.436;13.312;2023-05-23T06:27:50;17.80;99.90
33699;DHT22;20032;52.436;13.312;2023-05-23T06:30:15;17.80;99.90
33699;DHT22;20032;52.436;13.312;2023-05-23T06:32:41;18.00;99.90
33699;DHT22;20032;52.436;13.312;2023-05-23T06:35:06;18.00;99.90
33699;DHT22;20032;52.436;13.312;2023-05-23T06:37:32;18.00;99.90
33699;DHT22;20032;52.436;13.312;2023-05-23T06:39:58;18.00;99.90
33699;DHT22;20032;52.436;13.312;2023-05-23T06:42:24;18.10;99.90
33699;DHT22;20032;52.436;13.312;2023-05-23T06:44:49;18.30;99.90
33699;DHT22;20032;52.436;13.312;2023-05-23T06:47:15;18.40;99.50
33699;DHT22;20032;52.436;13.312;2023-05-23T06:49:40;18.50;99.60
33699;DHT22;20032;52.436;13.312;2023-05-23T06:52:07;18.60;99.90
33699;DHT22;20032;52.436;13.312;2023-05-23T06:54:32;18.60;99.90
33699;DHT22;20032;52.436;13.312;2023-05-23T06:56:58;18.70;99.30
33699;DHT22;20032;52.436;13.312;2023-05-23T06:59:24;18.80;99.10
33699;DHT22;20032;52.436;13.312;2023-05-23T07:01:50;18.90;98.20
33699;DHT22;20032;52.436;13.312;2023-05-23T07:04:15;18.70;98.60
33699;DHT22;20032;52.436;13.312;2023-05-23T07:06:41;18.80;99.30
33699;DHT22;20032;52.436;13.312;2023-05-23T07:09:06;18.80;98.10
33699;DHT22;20032;52.436;13.312;2023-05-23T07:11:32;18.80;98.90
33699;DHT22;20032;52.436;13.312;2023-05-23T07:13:57;18.80;99.00
33699;DHT22;20032;52.436;13.312;2023-05-23T07:16:23;18.80;98.80
33699;DHT22;20032;52.436;13.312;2023-05-23T07:18:49;18.80;98.40
33699;DHT22;20032;52.436;13.312;2023-05-23T07:21:14;18.80;98.80
33699;DHT22;20032;52.436;13.312;2023-05-23T07:23:40;18.80;99.10
33699;DHT22;20032;52.436;13.312;2023-05-23T07:26:06;18.90;98.40
33699;DHT22;20032;52.436;13.312;2023-05-23T07:28:34;18.90;98.60
33699;DHT22;20032;52.436;13.312;2023-05-23T07:30:59;18.90;98.70
33699;DHT22;20032;52.436;13.312;2023-05-23T07:33:25;19.00;97.90
33699;DHT22;20032;52.436;13.312;2023-05-23T07:35:51;18.90;98.10
33699;DHT22;20032;52.436;13.312;2023-05-23T07:38:16;18.90;98.50
33699;DHT22;20032;52.436;13.312;2023-05-23T07:40:41;19.10;98.30
33699;DHT22;20032;52.436;13.312;2023-05-23T07:43:07;19.30;97.90
33699;DHT22;20032;52.436;13.312;2023-05-23T07:45:32;19.30;97.70
33699;DHT22;20032;52.436;13.312;2023-05-23T07:47:58;19.40;97.80
33699;DHT22;20032;52.436;13.312;2023-05-23T07:50:23;19.60;97.60
33699;DHT22;20032;52.436;13.312;2023-05-23T07:52:52;19.60;97.80
33699;DHT22;20032;52.436;13.312;2023-05-23T07:55:17;19.80;97.30
33699;DHT22;20032;52.436;13.312;2023-05-23T07:57:42;20.10;96.70
33699;DHT22;20032;52.436;13.312;2023-05-23T08:00:08;20.40;96.50
33699;DHT22;20032;52.436;13.312;2023-05-23T08:02:34;20.50;96.80
33699;DHT22;20032;52.436;13.312;2023-05-23T08:05:00;20.60;97.20
33699;DHT22;20032;52.436;13.312;2023-05-23T08:07:25;20.90;97.60
33699;DHT22;20032;52.436;13.312;2023-05-23T08:09:51;21.10;97.90
33699;DHT22;20032;52.436;13.312;2023-05-23T08:12:16;21.20;97.80
33699;DHT22;20032;52.436;13.312;2023-05-23T08:14:42;21.30;97.80
33699;DHT22;20032;52.436;13.312;2023-05-23T08:17:07;21.20;98.20
33699;DHT22;20032;52.436;13.312;2023-05-23T08:19:33;21.10;98.60
33699;DHT22;20032;52.436;13.312;2023-05-23T08:21:58;20.90;98.70
33699;DHT22;20032;52.436;13.312;2023-05-23T08:24:24;21.00;98.40
33699;DHT22;20032;52.436;13.312;2023-05-23T08:26:49;21.00;98.40
33699;DHT22;20032;52.436;13.312;2023-05-23T08:29:15;21.10;98.40
33699;DHT22;20032;52.436;13.312;2023-05-23T08:31:40;21.00;98.50
33699;DHT22;20032;52.436;13.312;2023-05-23T08:34:06;21.20;99.00
33699;DHT22;20032;52.436;13.312;2023-05-23T08:36:31;21.20;98.30
33699;DHT22;20032;52.436;13.312;2023-05-23T08:39:00;21.30;98.40
33699;DHT22;20032;52.436;13.312;2023-05-23T08:41:26;21.20;98.60
33699;DHT22;20032;52.436;13.312;2023-05-23T08:43:51;21.40;99.00
33699;DHT22;20032;52.436;13.312;2023-05-23T08:46:17;21.60;98.80
33699;DHT22;20032;52.436;13.312;2023-05-23T08:48:47;21.60;98.90
33699;DHT22;20032;52.436;13.312;2023-05-23T08:51:16;21.30;99.20
33699;DHT22;20032;52.436;13.312;2023-05-23T08:53:44;21.20;99.30
33699;DHT22;20032;52.436;13.312;2023-05-23T08:56:11;21.40;99.30
33699;DHT22;20032;52.436;13.312;2023-05-23T08:58:38;21.50;99.30
33699;DHT22;20032;52.436;13.312;2023-05-23T09:01:06;21.50;99.40
33699;DHT22;20032;52.436;13.312;2023-05-23T09:03:34;21.80;99.60
33699;DHT22;20032;52.436;13.312;2023-05-23T09:06:04;22.10;99.60
33699;DHT22;20032;52.436;13.312;2023-05-23T09:08:30;21.90;99.60
33699;DHT22;20032;52.436;13.312;2023-05-23T09:10:56;21.80;99.90
33699;DHT22;20032;52.436;13.312;2023-05-23T09:13:21;21.70;99.90
33699;DHT22;20032;52.436;13.312;2023-05-23T09:16:08;21.30;99.90
33699;DHT22;20032;52.436;13.312;2023-05-23T09:18:39;21.20;99.90
33699;DHT22;20032;52.436;13.312;2023-05-23T09:21:06;21.10;99.90
33699;DHT22;20032;52.436;13.312;2023-05-23T09:23:32;21.30;99.90
33699;DHT22;20032;52.436;13.312;2023-05-23T09:26:09;21.40;99.90
33699;DHT22;20032;52.436;13.312;2023-05-23T09:28:37;21.60;99.90
33699;DHT22;20032;52.436;13.312;2023-05-23T09:31:04;21.60;99.90
33699;DHT22;20032;52.436;13.312;2023-05-23T09:33:44;21.20;99.90
33699;DHT22;20032;52.436;13.312;2023-05-23T09:36:11;21.10;99.90
33699;DHT22;20032;52.436;13.312;2023-05-23T09:38:38;20.90;99.90
33699;DHT22;20032;52.436;13.312;2023-05-23T09:41:04;20.90;99.90
33699;DHT22;20032;52.436;13.312;2023-05-23T09:43:29;20.90;99.90
33699;DHT22;20032;52.436;13.312;2023-05-23T09:46:00;20.80;99.90
33699;DHT22;20032;52.436;13.312;2023-05-23T09:48:29;20.60;99.90
33699;DHT22;20032;52.436;13.312;2023-05-23T09:50:56;20.50;99.90
33699;DHT22;20032;52.436;13.312;2023-05-23T09:53:22;20.50;99.90
33699;DHT22;20032;52.436;13.312;2023-05-23T09:55:50;20.50;99.90
33699;DHT22;20032;52.436;13.312;2023-05-23T09:58:19;20.50;99.90
33699;DHT22;20032;52.436;13.312;2023-05-23T10:00:49;20.40;99.90
33699;DHT22;20032;52.436;13.312;2023-05-23T10:03:18;20.40;99.90
33699;DHT22;20032;52.436;13.312;2023-05-23T10:05:48;20.40;99.90
33699;DHT22;20032;52.436;13.312;2023-05-23T10:08:20;20.60;99.90
33699;DHT22;20032;52.436;13.312;2023-05-23T10:13:25;21.30;99.90
33699;DHT22;20032;52.436;13.312;2023-05-23T10:15:55;21.60;99.90
33699;DHT22;20032;52.436;13.312;2023-05-23T10:18:25;21.60;99.90
33699;DHT22;20032;52.436;13.312;2023-05-23T10:20:54;21.50;99.90
33699;DHT22;20032;52.436;13.312;2023-05-23T10:23:22;21.20;99.90
33699;DHT22;20032;52.436;13.312;2023-05-23T10:25:48;21.00;99.90
33699;DHT22;20032;52.436;13.312;2023-05-23T10:28:14;20.40;99.90
33699;DHT22;20032;52.436;13.312;2023-05-23T10:30:39;19.90;99.90
33699;DHT22;20032;52.436;13.312;2023-05-23T10:33:05;19.70;99.90
33699;DHT22;20032;52.436;13.312;2023-05-23T10:35:54;19.60;99.90
33699;DHT22;20032;52.436;13.312;2023-05-23T10:38:30;19.70;99.90
33699;DHT22;20032;52.436;13.312;2023-05-23T10:41:26;19.50;99.90
33699;DHT22;20032;52.436;13.312;2023-05-23T10:43:56;19.50;99.90
33699;DHT22;20032;52.436;13.312;2023-05-23T10:46:50;19.30;99.90
33699;DHT22;20032;52.436;13.312;2023-05-23T10:49:16;19.20;99.90
33699;DHT22;20032;52.436;13.312;2023-05-23T10:51:42;19.30;99.90
33699;DHT22;20032;52.436;13.312;2023-05-23T10:54:10;19.30;99.90
33699;DHT22;20032;52.436;13.312;2023-05-23T10:56:36;19.40;99.90
33699;DHT22;20032;52.436;13.312;2023-05-23T10:59:04;19.30;99.90
33699;DHT22;20032;52.436;13.312;2023-05-23T11:01:31;19.00;99.90
33699;DHT22;20032;52.436;13.312;2023-05-23T11:03:56;19.00;99.90
33699;DHT22;20032;52.436;13.312;2023-05-23T11:06:43;19.00;99.90
33699;DHT22;20032;52.436;13.312;2023-05-23T11:09:13;19.10;99.90
33699;DHT22;20032;52.436;13.312;2023-05-23T11:11:59;19.20;99.90
33699;DHT22;20032;52.436;13.312;2023-05-23T11:17:28;19.20;99.90
33699;DHT22;20032;52.436;13.312;2023-05-23T11:19:57;19.40;99.90
33699;DHT22;20032;52.436;13.312;2023-05-23T11:22:27;19.20;99.90
33699;DHT22;20032;52.436;13.312;2023-05-23T11:24:54;18.80;99.90
33699;DHT22;20032;52.436;13.312;2023-05-23T11:27:38;18.80;99.90
33699;DHT22;20032;52.436;13.312;2023-05-23T11:30:09;18.70;99.90
33699;DHT22;20032;52.436;13.312;2023-05-23T11:32:37;18.70;99.90
33699;DHT22;20032;52.436;13.312;2023-05-23T11:35:04;18.60;99.90
33699;DHT22;20032;52.436;13.312;2023-05-23T11:37:30;18.50;99.90
33699;DHT22;20032;52.436;13.312;2023-05-23T11:39:56;18.60;99.90
33699;DHT22;20032;52.436;13.312;2023-05-23T11:42:23;18.50;99.90
33699;DHT22;20032;52.436;13.312;2023-05-23T11:44:50;18.60;99.90
33699;DHT22;20032;52.436;13.312;2023-05-23T11:47:16;18.70;99.90
33699;DHT22;20032;52.436;13.312;2023-05-23T11:49:44;18.80;99.90
33699;DHT22;20032;52.436;13.312;2023-05-23T11:52:11;18.90;99.90
33699;DHT22;20032;52.436;13.312;2023-05-23T11:54:40;18.80;99.90
33699;DHT22;20032;52.436;13.312;2023-05-23T11:57:08;18.80;99.90
33699;DHT22;20032;52.436;13.312;2023-05-23T11:59:33;18.90;99.90
33699;DHT22;20032;52.436;13.312;2023-05-23T12:02:01;18.80;99.90
33699;DHT22;20032;52.436;13.312;2023-05-23T12:04:27;18.70;99.90
33699;DHT22;20032;52.436;13.312;2023-05-23T12:06:53;18.70;99.90
33699;DHT22;20032;52.436;13.312;2023-05-23T12:09:19;18.70;99.90
33699;DHT22;20032;52.436;13.312;2023-05-23T12:11:45;18.70;99.90
33699;DHT22;20032;52.436;13.312;2023-05-23T12:14:14;18.70;99.90
33699;DHT22;20032;52.436;13.312;2023-05-23T12:16:42;18.70;99.90
33699;DHT22;20032;52.436;13.312;2023-05-23T12:19:09;18.60;99.90
33699;DHT22;20032;52.436;13.312;2023-05-23T12:21:50;18.60;99.90
33699;DHT22;20032;52.436;13.312;2023-05-23T12:24:20;18.60;99.90
33699;DHT22;20032;52.436;13.312;2023-05-23T12:26:48;18.50;99.90
33699;DHT22;20032;52.436;13.312;2023-05-23T12:29:14;18.70;99.90
33699;DHT22;20032;52.436;13.312;2023-05-23T12:31:41;18.70;99.90
33699;DHT22;20032;52.436;13.312;2023-05-23T12:34:06;19.00;99.90
33699;DHT22;20032;52.436;13.312;2023-05-23T12:36:33;19.00;99.90
33699;DHT22;20032;52.436;13.312;2023-05-23T12:39:03;19.00;99.90
33699;DHT22;20032;52.436;13.312;2023-05-23T12:41:30;19.00;99.90
33699;DHT22;20032;52.436;13.312;2023-05-23T12:43:56;18.90;99.90
33699;DHT22;20032;52.436;13.312;2023-05-23T12:46:23;18.70;99.90
33699;DHT22;20032;52.436;13.312;2023-05-23T12:48:49;18.80;99.90
33699;DHT22;20032;52.436;13.312;2023-05-23T12:51:15;18.80;99.90
33699;DHT22;20032;52.436;13.312;2023-05-23T12:53:41;18.90;99.90
33699;DHT22;20032;52.436;13.312;2023-05-23T12:56:07;18.90;99.90
33699;DHT22;20032;52.436;13.312;2023-05-23T12:58:32;19.10;99.90
33699;DHT22;20032;52.436;13.312;2023-05-23T13:01:00;19.30;99.90
33699;DHT22;20032;52.436;13.312;2023-05-23T13:03:26;19.20;99.90
33699;DHT22;20032;52.436;13.312;2023-05-23T13:05:52;19.20;99.90
33699;DHT22;20032;52.436;13.312;2023-05-23T13:08:18;19.10;99.90
33699;DHT22;20032;52.436;13.312;2023-05-23T13:10:44;19.00;99.90
33699;DHT22;20032;52.436;13.312;2023-05-23T13:13:11;19.00;99.90
33699;DHT22;20032;52.436;13.312;2023-05-23T13:15:36;19.00;99.90
33699;DHT22;20032;52.436;13.312;2023-05-23T13:18:03;18.90;99.90
33699;DHT22;20032;52.436;13.312;2023-05-23T13:20:28;18.90;99.90
33699;DHT22;20032;52.436;13.312;2023-05-23T13:22:56;18.90;99.90
33699;DHT22;20032;52.436;13.312;2023-05-23T13:25:25;18.80;99.90
33699;DHT22;20032;52.436;13.312;2023-05-23T13:27:51;18.80;99.90
33699;DHT22;20032;52.436;13.312;2023-05-23T13:30:18;18.70;99.90
33699;DHT22;20032;52.436;13.312;2023-05-23T13:32:44;18.60;99.90
33699;DHT22;20032;52.436;13.312;2023-05-23T13:35:10;18.50;99.90
33699;DHT22;20032;52.436;13.312;2023-05-23T13:37:35;18.40;99.90
33699;DHT22;20032;52.436;13.312;2023-05-23T13:40:02;18.40;99.90
33699;DHT22;20032;52.436;13.312;2023-05-23T13:42:28;18.30;99.90
33699;DHT22;20032;52.436;13.312;2023-05-23T13:44:53;18.20;99.90
33699;DHT22;20032;52.436;13.312;2023-05-23T13:47:19;18.20;99.90
33699;DHT22;20032;52.436;13.312;2023-05-23T13:49:44;17.90;99.90
33699;DHT22;20032;52.436;13.312;2023-05-23T13:52:10;17.90;99.90
33699;DHT22;20032;52.436;13.312;2023-05-23T13:54:36;17.80;99.90
33699;DHT22;20032;52.436;13.312;2023-05-23T13:57:02;17.80;99.90
33699;DHT22;20032;52.436;13.312;2023-05-23T13:59:28;17.80;99.90
33699;DHT22;20032;52.436;13.312;2023-05-23T14:01:53;17.90;99.90
33699;DHT22;20032;52.436;13.312;2023-05-23T14:04:19;18.00;99.90
33699;DHT22;20032;52.436;13.312;2023-05-23T14:06:45;18.00;99.90
33699;DHT22;20032;52.436;13.312;2023-05-23T14:09:11;18.10;99.90
33699;DHT22;20032;52.436;13.312;2023-05-23T14:11:37;18.00;99.90
33699;DHT22;20032;52.436;13.312;2023-05-23T14:14:02;18.10;99.90
33699;DHT22;20032;52.436;13.312;2023-05-23T14:16:28;18.00;99.90
33699;DHT22;20032;52.436;13.312;2023-05-23T14:18:54;17.90;99.90
33699;DHT22;20032;52.436;13.312;2023-05-23T14:21:20;17.80;99.90
33699;DHT22;20032;52.436;13.312;2023-05-23T14:23:46;17.80;99.90
33699;DHT22;20032;52.436;13.312;2023-05-23T14:26:11;17.70;99.90
33699;DHT22;20032;52.436;13.312;2023-05-23T14:28:37;17.70;99.90
33699;DHT22;20032;52.436;13.312;2023-05-23T14:31:03;17.60;99.90
33699;DHT22;20032;52.436;13.312;2023-05-23T14:33:28;17.60;99.90
33699;DHT22;20032;52.436;13.312;2023-05-23T14:35:54;17.60;99.90
33699;DHT22;20032;52.436;13.312;2023-05-23T14:38:19;17.60;99.90
33699;DHT22;20032;52.436;13.312;2023-05-23T14:40:45;17.60;99.90
33699;DHT22;20032;52.436;13.312;2023-05-23T14:43:11;17.50;99.90
33699;DHT22;20032;52.436;13.312;2023-05-23T14:45:37;17.50;99.90
33699;DHT22;20032;52.436;13.312;2023-05-23T14:48:03;17.40;99.90
33699;DHT22;20032;52.436;13.312;2023-05-23T14:50:29;17.20;99.90
33699;DHT22;20032;52.436;13.312;2023-05-23T14:52:55;17.20;99.90
33699;DHT22;20032;52.436;13.312;2023-05-23T14:55:21;17.20;99.90
33699;DHT22;20032;52.436;13.312;2023-05-23T14:57:46;17.20;99.90
33699;DHT22;20032;52.436;13.312;2023-05-23T15:00:12;17.20;99.90
33699;DHT22;20032;52.436;13.312;2023-05-23T15:02:38;17.20;99.90
33699;DHT22;20032;52.436;13.312;2023-05-23T15:05:04;17.10;99.90
33699;DHT22;20032;52.436;13.312;2023-05-23T15:07:30;17.10;99.90
33699;DHT22;20032;52.436;13.312;2023-05-23T15:09:55;16.90;99.90
33699;DHT22;20032;52.436;13.312;2023-05-23T15:12:21;16.80;99.90
33699;DHT22;20032;52.436;13.312;2023-05-23T15:14:47;16.50;99.90
33699;DHT22;20032;52.436;13.312;2023-05-23T15:17:12;16.40;99.90
33699;DHT22;20032;52.436;13.312;2023-05-23T15:19:44;16.20;99.90
33699;DHT22;20032;52.436;13.312;2023-05-23T15:22:09;16.10;99.90